sensor_id;sensor_type;location;lat;lon;timestamp;pressure;altitude;pressure_sealevel;temperature
20730;BMP280;10526;50.850;12.928;2023-06-26T00:02:47;98044.09;;;16.79
20730;BMP280;10526;50.850;12.928;2023-06-26T00:07:09;98043.91;;;16.74
20730;BMP280;10526;50.850;12.928;2023-06-26T00:11:31;98040.47;;;16.73
20730;BMP280;10526;50.850;12.928;2023-06-26T00:15:55;98034.47;;;16.69
20730;BMP280;10526;50.850;12.928;2023-06-26T00:20:17;98035.31;;;16.66
20730;BMP280;10526;50.850;12.928;2023-06-26T00:24:40;98030.06;;;16.62
20730;BMP280;10526;50.850;12.928;2023-06-26T00:29:02;98029.31;;;16.62
20730;BMP280;10526;50.850;12.928;2023-06-26T00:33:24;98030.91;;;16.59
20730;BMP280;10526;50.850;12.928;2023-06-26T00:37:46;98029.53;;;16.55
20730;BMP280;10526;50.850;12.928;2023-06-26T00:42:09;98029.53;;;16.55
20730;BMP280;10526;50.850;12.928;2023-06-26T00:46:33;98021.78;;;16.57
20730;BMP280;10526;50.850;12.928;2023-06-26T00:50:56;98019.44;;;16.59
20730;BMP280;10526;50.850;12.928;2023-06-26T00:55:18;98019.44;;;16.59
20730;BMP280;10526;50.850;12.928;2023-06-26T00:59:40;98014.50;;;16.57
20730;BMP280;10526;50.850;12.928;2023-06-26T01:04:03;98022.69;;;16.54
20730;BMP280;10526;50.850;12.928;2023-06-26T01:08:25;98016.41;;;16.57
20730;BMP280;10526;50.850;12.928;2023-06-26T01:12:48;98023.59;;;16.60
20730;BMP280;10526;50.850;12.928;2023-06-26T01:17:11;98012.75;;;16.63
20730;BMP280;10526;50.850;12.928;2023-06-26T01:21:39;98006.53;;;16.76
20730;BMP280;10526;50.850;12.928;2023-06-26T01:26:22;98004.69;;;16.85
20730;BMP280;10526;50.850;12.928;2023-06-26T01:30:45;98005.44;;;16.86
20730;BMP280;10526;50.850;12.928;2023-06-26T01:35:08;98000.81;;;16.86
20730;BMP280;10526;50.850;12.928;2023-06-26T01:39:31;97998.44;;;16.88
20730;BMP280;10526;50.850;12.928;2023-06-26T01:44:26;97999.00;;;16.83
20730;BMP280;10526;50.850;12.928;2023-06-26T01:54:01;97980.28;;;16.80
20730;BMP280;10526;50.850;12.928;2023-06-26T01:58:25;97979.78;;;16.72
20730;BMP280;10526;50.850;12.928;2023-06-26T02:02:47;97976.28;;;16.62
20730;BMP280;10526;50.850;12.928;2023-06-26T02:07:09;97967.41;;;16.53
20730;BMP280;10526;50.850;12.928;2023-06-26T02:11:32;97963.03;;;16.46
20730;BMP280;10526;50.850;12.928;2023-06-26T02:15:54;97964.88;;;16.36
20730;BMP280;10526;50.850;12.928;2023-06-26T02:20:16;97961.38;;;16.27
20730;BMP280;10526;50.850;12.928;2023-06-26T02:24:38;97956.34;;;16.16
20730;BMP280;10526;50.850;12.928;2023-06-26T02:29:01;97962.91;;;16.02
20730;BMP280;10526;50.850;12.928;2023-06-26T02:33:23;97963.22;;;15.92
20730;BMP280;10526;50.850;12.928;2023-06-26T02:37:45;97960.34;;;15.86
20730;BMP280;10526;50.850;12.928;2023-06-26T02:42:07;97961.31;;;15.79
20730;BMP280;10526;50.850;12.928;2023-06-26T02:46:29;97961.53;;;15.72
20730;BMP280;10526;50.850;12.928;2023-06-26T02:50:52;97957.91;;;15.66
20730;BMP280;10526;50.850;12.928;2023-06-26T02:55:20;97964.56;;;15.62
20730;BMP280;10526;50.850;12.928;2023-06-26T02:59:46;97956.28;;;15.56
20730;BMP280;10526;50.850;12.928;2023-06-26T03:04:08;97957.00;;;15.57
20730;BMP280;10526;50.850;12.928;2023-06-26T03:08:30;97949.41;;;15.68
20730;BMP280;10526;50.850;12.928;2023-06-26T03:12:54;97947.78;;;15.83
20730;BMP280;10526;50.850;12.928;2023-06-26T03:17:17;97944.53;;;16.01
20730;BMP280;10526;50.850;12.928;2023-06-26T03:21:41;97941.13;;;16.22
20730;BMP280;10526;50.850;12.928;2023-06-26T03:26:04;97936.22;;;16.77
20730;BMP280;10526;50.850;12.928;2023-06-26T03:30:29;97946.50;;;17.81
20730;BMP280;10526;50.850;12.928;2023-06-26T03:34:52;97946.50;;;18.91
20730;BMP280;10526;50.850;12.928;2023-06-26T03:39:19;97948.34;;;19.98
20730;BMP280;10526;50.850;12.928;2023-06-26T03:43:41;97946.91;;;21.00
20730;BMP280;10526;50.850;12.928;2023-06-26T03:48:11;97948.56;;;22.09
20730;BMP280;10526;50.850;12.928;2023-06-26T03:52:33;97948.19;;;23.16
20730;BMP280;10526;50.850;12.928;2023-06-26T03:56:55;97943.81;;;24.06
20730;BMP280;10526;50.850;12.928;2023-06-26T04:01:17;97943.59;;;24.71
20730;BMP280;10526;50.850;12.928;2023-06-26T04:05:39;97938.88;;;24.04
20730;BMP280;10526;50.850;12.928;2023-06-26T04:10:02;97938.81;;;23.17
20730;BMP280;10526;50.850;12.928;2023-06-26T04:14:24;97938.19;;;23.44
20730;BMP280;10526;50.850;12.928;2023-06-26T04:18:46;97938.66;;;24.58
20730;BMP280;10526;50.850;12.928;2023-06-26T04:23:08;97934.56;;;25.20
20730;BMP280;10526;50.850;12.928;2023-06-26T04:27:31;97925.59;;;25.31
20730;BMP280;10526;50.850;12.928;2023-06-26T04:31:56;97928.97;;;24.18
20730;BMP280;10526;50.850;12.928;2023-06-26T04:36:21;97934.88;;;23.88
20730;BMP280;10526;50.850;12.928;2023-06-26T04:40:43;97930.47;;;24.08
20730;BMP280;10526;50.850;12.928;2023-06-26T04:45:06;97926.50;;;23.98
20730;BMP280;10526;50.850;12.928;2023-06-26T04:49:28;97925.78;;;24.53
20730;BMP280;10526;50.850;12.928;2023-06-26T04:53:51;97932.09;;;26.94
20730;BMP280;10526;50.850;12.928;2023-06-26T04:58:13;97928.59;;;29.12
20730;BMP280;10526;50.850;12.928;2023-06-26T05:02:36;97933.31;;;31.29
20730;BMP280;10526;50.850;12.928;2023-06-26T05:06:59;97939.75;;;33.26
20730;BMP280;10526;50.850;12.928;2023-06-26T05:11:22;97930.91;;;34.80
20730;BMP280;10526;50.850;12.928;2023-06-26T05:15:46;97933.31;;;35.85
20730;BMP280;10526;50.850;12.928;2023-06-26T05:20:09;97929.06;;;36.71
20730;BMP280;10526;50.850;12.928;2023-06-26T05:24:32;97925.47;;;36.99
20730;BMP280;10526;50.850;12.928;2023-06-26T05:28:55;97916.13;;;36.95
20730;BMP280;10526;50.850;12.928;2023-06-26T05:33:18;97915.97;;;36.23
20730;BMP280;10526;50.850;12.928;2023-06-26T05:37:44;97917.44;;;36.34
20730;BMP280;10526;50.850;12.928;2023-06-26T05:42:07;97912.53;;;37.13
20730;BMP280;10526;50.850;12.928;2023-06-26T05:46:29;97909.41;;;37.50
20730;BMP280;10526;50.850;12.928;2023-06-26T05:50:51;97918.34;;;37.48
20730;BMP280;10526;50.850;12.928;2023-06-26T05:55:14;97906.91;;;38.41
20730;BMP280;10526;50.850;12.928;2023-06-26T05:59:37;97911.28;;;39.49
20730;BMP280;10526;50.850;12.928;2023-06-26T06:04:01;97911.53;;;40.29
20730;BMP280;10526;50.850;12.928;2023-06-26T06:08:23;97909.72;;;41.15
20730;BMP280;10526;50.850;12.928;2023-06-26T06:12:45;97911.91;;;41.89
20730;BMP280;10526;50.850;12.928;2023-06-26T06:17:07;97907.16;;;42.70
20730;BMP280;10526;50.850;12.928;2023-06-26T06:21:30;97907.53;;;42.15
20730;BMP280;10526;50.850;12.928;2023-06-26T06:25:52;97907.34;;;42.43
20730;BMP280;10526;50.850;12.928;2023-06-26T06:30:14;97903.72;;;43.38
20730;BMP280;10526;50.850;12.928;2023-06-26T06:34:36;97909.66;;;44.80
20730;BMP280;10526;50.850;12.928;2023-06-26T06:38:58;97917.38;;;46.16
20730;BMP280;10526;50.850;12.928;2023-06-26T06:43:21;97921.97;;;46.55
20730;BMP280;10526;50.850;12.928;2023-06-26T06:47:43;97921.38;;;47.80
20730;BMP280;10526;50.850;12.928;2023-06-26T06:52:05;97918.94;;;48.36
20730;BMP280;10526;50.850;12.928;2023-06-26T06:56:27;97912.16;;;48.95
20730;BMP280;10526;50.850;12.928;2023-06-26T07:00:50;97918.16;;;49.71
20730;BMP280;10526;50.850;12.928;2023-06-26T07:05:13;97913.16;;;48.28
20730;BMP280;10526;50.850;12.928;2023-06-26T07:09:36;97902.00;;;47.66
20730;BMP280;10526;50.850;12.928;2023-06-26T07:13:58;97904.09;;;47.97
20730;BMP280;10526;50.850;12.928;2023-06-26T07:18:20;97898.69;;;48.49
20730;BMP280;10526;50.850;12.928;2023-06-26T07:22:43;97902.16;;;47.72
20730;BMP280;10526;50.850;12.928;2023-06-26T07:27:09;97891.66;;;48.12
20730;BMP280;10526;50.850;12.928;2023-06-26T07:31:31;97905.88;;;46.87
20730;BMP280;10526;50.850;12.928;2023-06-26T07:35:56;97898.22;;;48.63
20730;BMP280;10526;50.850;12.928;2023-06-26T07:40:18;97897.19;;;48.06
20730;BMP280;10526;50.850;12.928;2023-06-26T07:44:42;97899.56;;;48.58
20730;BMP280;10526;50.850;12.928;2023-06-26T07:49:04;97898.41;;;49.77
20730;BMP280;10526;50.850;12.928;2023-06-26T07:53:26;97900.63;;;49.87
20730;BMP280;10526;50.850;12.928;2023-06-26T07:57:48;97888.44;;;49.74
20730;BMP280;10526;50.850;12.928;2023-06-26T08:02:12;97896.94;;;50.42
20730;BMP280;10526;50.850;12.928;2023-06-26T08:06:34;97893.66;;;50.80
20730;BMP280;10526;50.850;12.928;2023-06-26T08:10:57;97887.03;;;51.70
20730;BMP280;10526;50.850;12.928;2023-06-26T08:15:19;97886.28;;;51.63
20730;BMP280;10526;50.850;12.928;2023-06-26T08:19:41;97889.81;;;51.54
20730;BMP280;10526;50.850;12.928;2023-06-26T08:24:03;97888.47;;;51.91
20730;BMP280;10526;50.850;12.928;2023-06-26T08:28:25;97884.97;;;52.39
20730;BMP280;10526;50.850;12.928;2023-06-26T08:32:48;97877.13;;;52.25
20730;BMP280;10526;50.850;12.928;2023-06-26T08:37:10;97879.19;;;51.58
20730;BMP280;10526;50.850;12.928;2023-06-26T08:41:31;97881.16;;;51.27
20730;BMP280;10526;50.850;12.928;2023-06-26T08:45:54;97879.25;;;50.46
20730;BMP280;10526;50.850;12.928;2023-06-26T08:50:17;97876.41;;;50.46
20730;BMP280;10526;50.850;12.928;2023-06-26T08:54:46;97874.72;;;50.14
20730;BMP280;10526;50.850;12.928;2023-06-26T08:59:09;97872.75;;;51.52
20730;BMP280;10526;50.850;12.928;2023-06-26T09:03:37;97879.19;;;51.76
20730;BMP280;10526;50.850;12.928;2023-06-26T09:07:59;97874.09;;;51.28
20730;BMP280;10526;50.850;12.928;2023-06-26T09:12:22;97872.41;;;50.81
20730;BMP280;10526;50.850;12.928;2023-06-26T09:16:46;97862.03;;;50.23
20730;BMP280;10526;50.850;12.928;2023-06-26T09:21:09;97862.53;;;50.00
20730;BMP280;10526;50.850;12.928;2023-06-26T09:25:31;97855.06;;;49.64
20730;BMP280;10526;50.850;12.928;2023-06-26T09:29:53;97866.47;;;50.47
20730;BMP280;10526;50.850;12.928;2023-06-26T09:34:18;97859.84;;;50.14
20730;BMP280;10526;50.850;12.928;2023-06-26T09:38:42;97864.00;;;50.05
20730;BMP280;10526;50.850;12.928;2023-06-26T09:43:05;97861.22;;;51.09
20730;BMP280;10526;50.850;12.928;2023-06-26T09:47:30;97856.56;;;50.50
20730;BMP280;10526;50.850;12.928;2023-06-26T09:51:54;97855.13;;;50.41
20730;BMP280;10526;50.850;12.928;2023-06-26T09:56:17;97855.56;;;50.11
20730;BMP280;10526;50.850;12.928;2023-06-26T10:00:40;97852.41;;;46.93
20730;BMP280;10526;50.850;12.928;2023-06-26T10:05:03;97846.81;;;45.60
20730;BMP280;10526;50.850;12.928;2023-06-26T10:09:26;97841.63;;;46.54
20730;BMP280;10526;50.850;12.928;2023-06-26T10:13:51;97839.44;;;46.80
20730;BMP280;10526;50.850;12.928;2023-06-26T10:18:34;97837.00;;;48.38
20730;BMP280;10526;50.850;12.928;2023-06-26T10:23:00;97826.13;;;49.14
20730;BMP280;10526;50.850;12.928;2023-06-26T10:27:32;97828.47;;;50.86
20730;BMP280;10526;50.850;12.928;2023-06-26T10:31:58;97829.13;;;50.76
20730;BMP280;10526;50.850;12.928;2023-06-26T10:36:30;97824.75;;;50.57
20730;BMP280;10526;50.850;12.928;2023-06-26T10:40:53;97808.00;;;49.99
20730;BMP280;10526;50.850;12.928;2023-06-26T10:45:20;97812.09;;;49.24
20730;BMP280;10526;50.850;12.928;2023-06-26T10:49:47;97808.69;;;49.34
20730;BMP280;10526;50.850;12.928;2023-06-26T10:54:30;97811.97;;;49.72
20730;BMP280;10526;50.850;12.928;2023-06-26T10:58:53;97797.06;;;49.69
20730;BMP280;10526;50.850;12.928;2023-06-26T11:03:32;97804.97;;;49.81
20730;BMP280;10526;50.850;12.928;2023-06-26T11:08:07;97794.50;;;45.06
20730;BMP280;10526;50.850;12.928;2023-06-26T11:12:44;97790.84;;;42.36
20730;BMP280;10526;50.850;12.928;2023-06-26T11:17:06;97781.59;;;40.96
20730;BMP280;10526;50.850;12.928;2023-06-26T11:21:28;97775.53;;;39.40
20730;BMP280;10526;50.850;12.928;2023-06-26T11:25:51;97775.19;;;37.59
20730;BMP280;10526;50.850;12.928;2023-06-26T11:30:24;97779.69;;;35.98
20730;BMP280;10526;50.850;12.928;2023-06-26T11:34:48;97765.09;;;35.88
20730;BMP280;10526;50.850;12.928;2023-06-26T11:39:10;97756.38;;;35.82
20730;BMP280;10526;50.850;12.928;2023-06-26T11:43:34;97757.50;;;35.21
20730;BMP280;10526;50.850;12.928;2023-06-26T11:47:57;97754.97;;;34.87
20730;BMP280;10526;50.850;12.928;2023-06-26T11:52:20;97749.44;;;34.50
20730;BMP280;10526;50.850;12.928;2023-06-26T11:56:43;97747.03;;;34.10
20730;BMP280;10526;50.850;12.928;2023-06-26T12:01:05;97732.84;;;33.97
20730;BMP280;10526;50.850;12.928;2023-06-26T12:05:28;97733.19;;;33.66
20730;BMP280;10526;50.850;12.928;2023-06-26T12:09:50;97728.47;;;33.76
20730;BMP280;10526;50.850;12.928;2023-06-26T12:14:12;97720.41;;;33.53
20730;BMP280;10526;50.850;12.928;2023-06-26T12:18:37;97725.13;;;33.26
20730;BMP280;10526;50.850;12.928;2023-06-26T12:22:59;97728.13;;;33.21
20730;BMP280;10526;50.850;12.928;2023-06-26T12:27:21;97717.81;;;33.21
20730;BMP280;10526;50.850;12.928;2023-06-26T12:31:45;97715.72;;;33.29
20730;BMP280;10526;50.850;12.928;2023-06-26T12:36:11;97716.13;;;33.26
20730;BMP280;10526;50.850;12.928;2023-06-26T12:40:34;97707.84;;;33.08
20730;BMP280;10526;50.850;12.928;2023-06-26T12:44:56;97708.56;;;33.26
20730;BMP280;10526;50.850;12.928;2023-06-26T12:49:18;97705.50;;;33.39
20730;BMP280;10526;50.850;12.928;2023-06-26T12:53:44;97697.38;;;33.41
20730;BMP280;10526;50.850;12.928;2023-06-26T12:58:06;97688.03;;;33.37
20730;BMP280;10526;50.850;12.928;2023-06-26T13:02:30;97689.34;;;33.36
20730;BMP280;10526;50.850;12.928;2023-06-26T13:06:52;97676.06;;;33.17
20730;BMP280;10526;50.850;12.928;2023-06-26T13:11:16;97675.25;;;33.07
20730;BMP280;10526;50.850;12.928;2023-06-26T13:15:39;97662.66;;;32.96
20730;BMP280;10526;50.850;12.928;2023-06-26T13:20:00;97668.16;;;32.79
20730;BMP280;10526;50.850;12.928;2023-06-26T13:24:23;97657.63;;;33.02
20730;BMP280;10526;50.850;12.928;2023-06-26T13:28:45;97647.91;;;33.18
20730;BMP280;10526;50.850;12.928;2023-06-26T13:33:07;97648.56;;;33.27
20730;BMP280;10526;50.850;12.928;2023-06-26T13:37:31;97646.28;;;32.98
20730;BMP280;10526;50.850;12.928;2023-06-26T13:41:53;97629.00;;;32.98
20730;BMP280;10526;50.850;12.928;2023-06-26T13:46:16;97632.72;;;33.27
20730;BMP280;10526;50.850;12.928;2023-06-26T13:50:39;97636.88;;;33.18
20730;BMP280;10526;50.850;12.928;2023-06-26T13:55:15;97633.31;;;33.08
20730;BMP280;10526;50.850;12.928;2023-06-26T13:59:38;97620.22;;;33.26
20730;BMP280;10526;50.850;12.928;2023-06-26T14:04:04;97632.47;;;33.15
20730;BMP280;10526;50.850;12.928;2023-06-26T14:08:26;97620.47;;;32.86
20730;BMP280;10526;50.850;12.928;2023-06-26T14:12:49;97615.28;;;32.90
20730;BMP280;10526;50.850;12.928;2023-06-26T14:17:12;97600.84;;;32.82
20730;BMP280;10526;50.850;12.928;2023-06-26T14:21:38;97591.78;;;32.64
20730;BMP280;10526;50.850;12.928;2023-06-26T14:26:00;97584.41;;;32.84
20730;BMP280;10526;50.850;12.928;2023-06-26T14:30:22;97567.72;;;32.82
20730;BMP280;10526;50.850;12.928;2023-06-26T14:34:44;97553.34;;;32.66
20730;BMP280;10526;50.850;12.928;2023-06-26T14:39:06;97550.09;;;32.60
20730;BMP280;10526;50.850;12.928;2023-06-26T14:43:29;97554.56;;;32.56
20730;BMP280;10526;50.850;12.928;2023-06-26T14:47:52;97549.25;;;32.50
20730;BMP280;10526;50.850;12.928;2023-06-26T14:52:14;97541.53;;;32.49
20730;BMP280;10526;50.850;12.928;2023-06-26T14:56:36;97543.09;;;32.59
20730;BMP280;10526;50.850;12.928;2023-06-26T15:00:58;97536.56;;;32.72
20730;BMP280;10526;50.850;12.928;2023-06-26T15:05:21;97528.66;;;32.51
20730;BMP280;10526;50.850;12.928;2023-06-26T15:09:46;97541.47;;;32.14
20730;BMP280;10526;50.850;12.928;2023-06-26T15:14:08;97533.31;;;31.66
20730;BMP280;10526;50.850;12.928;2023-06-26T15:18:30;97604.69;;;31.24
20730;BMP280;10526;50.850;12.928;2023-06-26T15:22:53;97637.16;;;29.76
20730;BMP280;10526;50.850;12.928;2023-06-26T15:27:15;97658.75;;;25.76
20730;BMP280;10526;50.850;12.928;2023-06-26T15:31:37;97645.34;;;23.73
20730;BMP280;10526;50.850;12.928;2023-06-26T15:36:00;97639.91;;;23.00
20730;BMP280;10526;50.850;12.928;2023-06-26T15:40:25;97595.66;;;22.72
20730;BMP280;10526;50.850;12.928;2023-06-26T15:44:47;97593.91;;;22.63
20730;BMP280;10526;50.850;12.928;2023-06-26T15:49:09;97600.09;;;22.69
20730;BMP280;10526;50.850;12.928;2023-06-26T15:53:37;97594.19;;;22.82
20730;BMP280;10526;50.850;12.928;2023-06-26T15:58:00;97631.00;;;23.00
20730;BMP280;10526;50.850;12.928;2023-06-26T16:02:21;97641.91;;;23.39
20730;BMP280;10526;50.850;12.928;2023-06-26T16:06:44;97644.81;;;23.91
20730;BMP280;10526;50.850;12.928;2023-06-26T16:11:07;97651.63;;;24.31
20730;BMP280;10526;50.850;12.928;2023-06-26T16:15:29;97654.47;;;24.55
20730;BMP280;10526;50.850;12.928;2023-06-26T16:19:51;97660.56;;;24.73
20730;BMP280;10526;50.850;12.928;2023-06-26T16:24:13;97678.44;;;24.63
20730;BMP280;10526;50.850;12.928;2023-06-26T16:28:36;97681.69;;;24.55
20730;BMP280;10526;50.850;12.928;2023-06-26T16:32:58;97697.56;;;24.51
20730;BMP280;10526;50.850;12.928;2023-06-26T16:37:23;97702.59;;;24.31
20730;BMP280;10526;50.850;12.928;2023-06-26T16:41:49;97702.38;;;24.12
20730;BMP280;10526;50.850;12.928;2023-06-26T16:46:17;97711.78;;;24.11
20730;BMP280;10526;50.850;12.928;2023-06-26T16:50:39;97704.09;;;24.20
20730;BMP280;10526;50.850;12.928;2023-06-26T16:55:03;97722.63;;;24.22
20730;BMP280;10526;50.850;12.928;2023-06-26T16:59:28;97733.03;;;24.18
20730;BMP280;10526;50.850;12.928;2023-06-26T17:03:50;97731.84;;;23.97
20730;BMP280;10526;50.850;12.928;2023-06-26T17:08:14;97744.22;;;23.86
20730;BMP280;10526;50.850;12.928;2023-06-26T17:12:38;97754.34;;;23.75
20730;BMP280;10526;50.850;12.928;2023-06-26T17:17:01;97773.13;;;23.67
20730;BMP280;10526;50.850;12.928;2023-06-26T17:21:23;97772.13;;;23.37
20730;BMP280;10526;50.850;12.928;2023-06-26T17:25:46;97774.78;;;23.14
20730;BMP280;10526;50.850;12.928;2023-06-26T17:30:08;97776.47;;;23.01
20730;BMP280;10526;50.850;12.928;2023-06-26T17:34:30;97795.91;;;22.88
20730;BMP280;10526;50.850;12.928;2023-06-26T17:38:52;97800.22;;;22.63
20730;BMP280;10526;50.850;12.928;2023-06-26T17:43:18;97803.81;;;22.43
20730;BMP280;10526;50.850;12.928;2023-06-26T17:47:42;97817.22;;;22.21
20730;BMP280;10526;50.850;12.928;2023-06-26T17:52:05;97820.75;;;22.01
20730;BMP280;10526;50.850;12.928;2023-06-26T17:56:27;97823.06;;;21.82
20730;BMP280;10526;50.850;12.928;2023-06-26T18:00:50;97827.09;;;21.67
20730;BMP280;10526;50.850;12.928;2023-06-26T18:05:15;97830.13;;;21.54
20730;BMP280;10526;50.850;12.928;2023-06-26T18:09:37;97829.88;;;21.52
20730;BMP280;10526;50.850;12.928;2023-06-26T18:14:00;97835.03;;;21.50
20730;BMP280;10526;50.850;12.928;2023-06-26T18:18:21;97831.16;;;21.36
20730;BMP280;10526;50.850;12.928;2023-06-26T18:22:45;97841.53;;;21.38
20730;BMP280;10526;50.850;12.928;2023-06-26T18:27:08;97833.59;;;21.34
20730;BMP280;10526;50.850;12.928;2023-06-26T18:31:30;97845.19;;;21.34
20730;BMP280;10526;50.850;12.928;2023-06-26T18:35:54;97835.72;;;21.24
20730;BMP280;10526;50.850;12.928;2023-06-26T18:40:16;97836.88;;;21.18
20730;BMP280;10526;50.850;12.928;2023-06-26T18:44:45;97848.25;;;21.22
20730;BMP280;10526;50.850;12.928;2023-06-26T18:49:07;97856.41;;;21.27
20730;BMP280;10526;50.850;12.928;2023-06-26T18:53:30;97854.41;;;21.22
20730;BMP280;10526;50.850;12.928;2023-06-26T18:57:52;97877.00;;;21.19
20730;BMP280;10526;50.850;12.928;2023-06-26T19:02:14;97888.78;;;21.16
20730;BMP280;10526;50.850;12.928;2023-06-26T19:06:36;97870.25;;;21.09
20730;BMP280;10526;50.850;12.928;2023-06-26T19:10:58;97871.19;;;21.06
20730;BMP280;10526;50.850;12.928;2023-06-26T19:15:20;97869.25;;;20.92
20730;BMP280;10526;50.850;12.928;2023-06-26T19:19:43;97872.28;;;20.79
20730;BMP280;10526;50.850;12.928;2023-06-26T19:24:05;97877.31;;;20.72
20730;BMP280;10526;50.850;12.928;2023-06-26T19:28:28;97880.13;;;20.62
20730;BMP280;10526;50.850;12.928;2023-06-26T19:32:50;97883.78;;;20.59
20730;BMP280;10526;50.850;12.928;2023-06-26T19:37:12;97889.94;;;20.60
20730;BMP280;10526;50.850;12.928;2023-06-26T19:41:34;97897.56;;;20.61
20730;BMP280;10526;50.850;12.928;2023-06-26T19:45:56;97885.28;;;20.60
20730;BMP280;10526;50.850;12.928;2023-06-26T19:50:21;97886.19;;;20.57
20730;BMP280;10526;50.850;12.928;2023-06-26T19:54:43;97888.69;;;20.61
20730;BMP280;10526;50.850;12.928;2023-06-26T19:59:05;97896.34;;;20.62
20730;BMP280;10526;50.850;12.928;2023-06-26T20:03:28;97883.88;;;20.65
20730;BMP280;10526;50.850;12.928;2023-06-26T20:07:50;97886.50;;;20.59
20730;BMP280;10526;50.850;12.928;2023-06-26T20:12:12;97901.03;;;20.62
20730;BMP280;10526;50.850;12.928;2023-06-26T20:16:34;97897.22;;;20.68
20730;BMP280;10526;50.850;12.928;2023-06-26T20:20:57;97900.47;;;20.73
20730;BMP280;10526;50.850;12.928;2023-06-26T20:25:19;97899.72;;;20.72
20730;BMP280;10526;50.850;12.928;2023-06-26T20:29:41;97896.47;;;20.68
20730;BMP280;10526;50.850;12.928;2023-06-26T20:34:04;97906.00;;;20.63
20730;BMP280;10526;50.850;12.928;2023-06-26T20:38:26;97899.38;;;20.64
20730;BMP280;10526;50.850;12.928;2023-06-26T20:42:48;97905.53;;;20.65
20730;BMP280;10526;50.850;12.928;2023-06-26T20:47:11;97908.03;;;20.68
20730;BMP280;10526;50.850;12.928;2023-06-26T20:51:34;97899.72;;;20.72
20730;BMP280;10526;50.850;12.928;2023-06-26T20:55:57;97890.84;;;20.72
20730;BMP280;10526;50.850;12.928;2023-06-26T21:00:21;97899.91;;;20.68
20730;BMP280;10526;50.850;12.928;2023-06-26T21:04:44;97904.47;;;20.62
20730;BMP280;10526;50.850;12.928;2023-06-26T21:09:06;97902.16;;;20.55
20730;BMP280;10526;50.850;12.928;2023-06-26T21:13:28;97907.84;;;20.57
20730;BMP280;10526;50.850;12.928;2023-06-26T21:17:50;97911.09;;;20.61
20730;BMP280;10526;50.850;12.928;2023-06-26T21:22:12;97915.03;;;20.60
20730;BMP280;10526;50.850;12.928;2023-06-26T21:26:37;97917.06;;;20.51
20730;BMP280;10526;50.850;12.928;2023-06-26T21:31:00;97921.38;;;20.43
20730;BMP280;10526;50.850;12.928;2023-06-26T21:35:22;97932.47;;;20.30
20730;BMP280;10526;50.850;12.928;2023-06-26T21:40:06;97929.91;;;20.12
20730;BMP280;10526;50.850;12.928;2023-06-26T21:44:28;97919.53;;;19.95
20730;BMP280;10526;50.850;12.928;2023-06-26T21:48:50;97930.28;;;19.81
20730;BMP280;10526;50.850;12.928;2023-06-26T21:53:13;97929.03;;;19.67
20730;BMP280;10526;50.850;12.928;2023-06-26T21:57:35;97930.47;;;19.53
20730;BMP280;10526;50.850;12.928;2023-06-26T22:01:57;97929.16;;;19.49
20730;BMP280;10526;50.850;12.928;2023-06-26T22:06:19;97923.91;;;19.45
20730;BMP280;10526;50.850;12.928;2023-06-26T22:10:41;97937.00;;;19.37
20730;BMP280;10526;50.850;12.928;2023-06-26T22:15:03;97935.88;;;19.29
20730;BMP280;10526;50.850;12.928;2023-06-26T22:19:25;97948.19;;;19.21
20730;BMP280;10526;50.850;12.928;2023-06-26T22:23:47;97931.97;;;19.21
20730;BMP280;10526;50.850;12.928;2023-06-26T22:28:09;97936.06;;;19.17
20730;BMP280;10526;50.850;12.928;2023-06-26T22:32:31;97946.25;;;19.12
20730;BMP280;10526;50.850;12.928;2023-06-26T22:36:54;97959.06;;;19.03
20730;BMP280;10526;50.850;12.928;2023-06-26T22:41:16;97959.69;;;18.89
20730;BMP280;10526;50.850;12.928;2023-06-26T22:45:38;97961.84;;;18.75
20730;BMP280;10526;50.850;12.928;2023-06-26T22:50:01;97977.41;;;18.62
20730;BMP280;10526;50.850;12.928;2023-06-26T22:54:23;97970.97;;;18.60
20730;BMP280;10526;50.850;12.928;2023-06-26T22:58:45;97974.44;;;18.60
20730;BMP280;10526;50.850;12.928;2023-06-26T23:03:07;97975.94;;;18.61
20730;BMP280;10526;50.850;12.928;2023-06-26T23:07:30;97982.34;;;18.64
20730;BMP280;10526;50.850;12.928;2023-06-26T23:11:56;97981.59;;;18.63
20730;BMP280;10526;50.850;12.928;2023-06-26T23:16:18;97987.31;;;18.56
20730;BMP280;10526;50.850;12.928;2023-06-26T23:20:41;97995.41;;;18.47
20730;BMP280;10526;50.850;12.928;2023-06-26T23:25:04;98001.97;;;18.37
20730;BMP280;10526;50.850;12.928;2023-06-26T23:29:27;98006.31;;;18.34
20730;BMP280;10526;50.850;12.928;2023-06-26T23:33:49;98007.69;;;18.30
20730;BMP280;10526;50.850;12.928;2023-06-26T23:38:11;98003.19;;;18.27
20730;BMP280;10526;50.850;12.928;2023-06-26T23:42:33;98012.78;;;18.18
20730;BMP280;10526;50.850;12.928;2023-06-26T23:46:55;98006.16;;;18.10
20730;BMP280;10526;50.850;12.928;2023-06-26T23:51:18;98006.59;;;18.00
20730;BMP280;10526;50.850;12.928;2023-06-26T23:55:40;98012.84;;;17.97
